Time;durP1;ratioP1;P1;durP2;ratioP2;P2;SDS_P1;SDS_P2;PMS_P1;PMS_P2;Temp;Humidity;BMP_temperature;BMP_pressure;BME280_temperature;BME280_humidity;BME280_pressure;Samples;Min_cycle;Max_cycle;Signal;HPM_P1;HPM_P2
2023/09/16 00:01:08;;;;;;;8.50;4.55;;;;;;;;;;4992898;28;20053;-69
2023/09/16 00:03:35;;;;;;;11.43;4.18;;;;;;;;;;4998563;28;20069;-69
2023/09/16 00:06:01;;;;;;;7.18;4.20;;;;;;;;;;4995005;28;20088;-69
2023/09/16 00:08:26;;;;;;;5.90;4.30;;;;;;;;;;4999241;28;20030;-69
2023/09/16 00:10:52;;;;;;;8.25;4.25;;;;;;;;;;4996582;28;20037;-69
2023/09/16 00:13:18;;;;;;;10.23;5.00;;;;;;;;;;4992580;28;20507;-69
2023/09/16 00:15:48;;;;;;;9.63;4.25;;;;;;;;;;4991840;28;20069;-69
2023/09/16 00:18:17;;;;;;;6.32;4.30;;;;;;;;;;4997278;28;20038;-69
2023/09/16 00:20:43;;;;;;;6.95;4.40;;;;;;;;;;4997548;28;20141;-69
2023/09/16 00:23:09;;;;;;;7.55;4.13;;;;;;;;;;4994811;28;20147;-69
2023/09/16 00:25:35;;;;;;;10.18;4.25;;;;;;;;;;4991458;28;20057;-69
2023/09/16 00:28:01;;;;;;;9.15;4.10;;;;;;;;;;4994340;28;20503;-69
2023/09/16 00:30:26;;;;;;;8.20;4.22;;;;;;;;;;4996747;28;20085;-69
2023/09/16 00:32:51;;;;;;;7.75;4.30;;;;;;;;;;4995146;28;20034;-69
2023/09/16 00:35:17;;;;;;;7.82;4.28;;;;;;;;;;4992524;28;20506;-69
2023/09/16 00:37:43;;;;;;;9.52;4.40;;;;;;;;;;4994646;28;20488;-69
2023/09/16 00:40:09;;;;;;;8.90;4.80;;;;;;;;;;4989359;28;20058;-69
2023/09/16 00:42:38;;;;;;;7.70;4.40;;;;;;;;;;4997730;28;20054;-69
2023/09/16 00:45:10;;;;;;;8.85;4.53;;;;;;;;;;4998134;28;20048;-69
2023/09/16 00:47:40;;;;;;;9.45;4.80;;;;;;;;;;4993340;28;20061;-69
2023/09/16 00:50:07;;;;;;;7.55;4.50;;;;;;;;;;4992145;28;20030;-69
2023/09/16 00:52:34;;;;;;;7.93;4.38;;;;;;;;;;4995776;28;20776;-69
2023/09/16 00:55:00;;;;;;;10.13;4.35;;;;;;;;;;4977699;28;20034;-68
2023/09/16 00:57:25;;;;;;;7.22;4.43;;;;;;;;;;4991798;28;20045;-68
2023/09/16 00:59:51;;;;;;;10.43;4.95;;;;;;;;;;4997021;28;20034;-68
2023/09/16 01:02:17;;;;;;;7.95;4.72;;;;;;;;;;4995731;28;20032;-68
2023/09/16 01:04:43;;;;;;;9.15;4.30;;;;;;;;;;4989138;28;20126;-68
2023/09/16 01:07:09;;;;;;;6.95;4.35;;;;;;;;;;4994882;28;20042;-68
2023/09/16 01:09:34;;;;;;;7.32;3.83;;;;;;;;;;5002416;28;20049;-69
2023/09/16 01:11:59;;;;;;;6.68;3.92;;;;;;;;;;4998079;28;20118;-68
2023/09/16 01:14:25;;;;;;;7.00;3.70;;;;;;;;;;4998082;28;20065;-68
2023/09/16 01:17:05;;;;;;;8.52;4.28;;;;;;;;;;4994727;28;20046;-68
2023/09/16 01:19:57;;;;;;;7.45;4.10;;;;;;;;;;4989941;28;20046;-68
2023/09/16 01:22:22;;;;;;;5.93;3.70;;;;;;;;;;4976035;28;20039;-68
2023/09/16 01:24:52;;;;;;;9.35;3.88;;;;;;;;;;4988780;28;20585;-68
2023/09/16 01:27:17;;;;;;;10.30;4.63;;;;;;;;;;4997685;28;20149;-68
2023/09/16 01:29:44;;;;;;;6.55;4.20;;;;;;;;;;4979050;28;20447;-68
2023/09/16 01:32:11;;;;;;;8.30;4.03;;;;;;;;;;4993160;28;20029;-69
2023/09/16 01:34:53;;;;;;;7.43;4.20;;;;;;;;;;4991045;28;20039;-68
2023/09/16 01:37:21;;;;;;;6.50;3.80;;;;;;;;;;4993002;28;20035;-69
2023/09/16 01:39:55;;;;;;;6.47;4.10;;;;;;;;;;4997597;28;20869;-68
2023/09/16 01:42:22;;;;;;;10.88;4.40;;;;;;;;;;4991244;28;20555;-68
2023/09/16 01:44:48;;;;;;;8.30;4.20;;;;;;;;;;4996257;28;20776;-69
2023/09/16 01:47:14;;;;;;;7.97;4.22;;;;;;;;;;4993841;28;20029;-68
2023/09/16 01:49:39;;;;;;;6.95;4.15;;;;;;;;;;4990413;28;20050;-68
2023/09/16 01:52:05;;;;;;;5.95;3.78;;;;;;;;;;4993078;28;20038;-68
2023/09/16 01:54:31;;;;;;;6.97;4.10;;;;;;;;;;4992770;28;20054;-68
2023/09/16 01:56:57;;;;;;;7.88;4.22;;;;;;;;;;4987235;28;20096;-68
2023/09/16 01:59:22;;;;;;;7.30;4.15;;;;;;;;;;4993615;28;20034;-68
2023/09/16 02:01:48;;;;;;;6.90;4.18;;;;;;;;;;4986906;28;20049;-68
2023/09/16 02:04:13;;;;;;;6.30;4.53;;;;;;;;;;4987852;28;20077;-68
2023/09/16 02:06:41;;;;;;;7.53;4.07;;;;;;;;;;4993434;28;20042;-68
2023/09/16 02:09:06;;;;;;;5.88;3.95;;;;;;;;;;4988798;28;20049;-68
2023/09/16 02:11:32;;;;;;;5.18;3.53;;;;;;;;;;5001018;28;20042;-68
2023/09/16 02:13:58;;;;;;;11.57;4.13;;;;;;;;;;5001109;28;20042;-68
2023/09/16 02:16:23;;;;;;;6.43;4.13;;;;;;;;;;4994987;28;20046;-69
2023/09/16 02:18:49;;;;;;;8.82;4.03;;;;;;;;;;4995655;28;20044;-68
2023/09/16 02:21:15;;;;;;;7.00;3.78;;;;;;;;;;5005574;28;20038;-68
2023/09/16 02:23:40;;;;;;;8.45;4.10;;;;;;;;;;5005356;28;20034;-68
2023/09/16 02:26:06;;;;;;;6.18;4.03;;;;;;;;;;4995361;28;20029;-68
2023/09/16 02:28:31;;;;;;;7.20;4.00;;;;;;;;;;4993707;28;20120;-68
2023/09/16 02:30:57;;;;;;;5.57;3.83;;;;;;;;;;5000690;28;20041;-68
2023/09/16 02:33:22;;;;;;;6.55;4.07;;;;;;;;;;4994363;28;20033;-68
2023/09/16 02:35:47;;;;;;;7.55;4.20;;;;;;;;;;4992480;28;20030;-68
2023/09/16 02:38:13;;;;;;;7.38;4.35;;;;;;;;;;4978645;28;20033;-68
2023/09/16 02:40:40;;;;;;;5.70;3.95;;;;;;;;;;4990634;28;20054;-68
2023/09/16 02:43:05;;;;;;;6.40;3.92;;;;;;;;;;4995886;28;20038;-68
2023/09/16 02:45:30;;;;;;;8.88;4.38;;;;;;;;;;4991529;28;20073;-68
2023/09/16 02:47:56;;;;;;;10.35;4.47;;;;;;;;;;5000446;28;20030;-68
2023/09/16 02:50:21;;;;;;;8.77;4.40;;;;;;;;;;4993935;28;20022;-68
2023/09/16 02:52:46;;;;;;;9.68;4.35;;;;;;;;;;4993614;28;20073;-68
2023/09/16 02:55:12;;;;;;;8.38;4.18;;;;;;;;;;4993732;28;20547;-68
2023/09/16 02:57:37;;;;;;;5.65;3.80;;;;;;;;;;4996822;28;20096;-68
2023/09/16 03:00:04;;;;;;;8.75;4.20;;;;;;;;;;5000353;28;20038;-68
2023/09/16 03:02:29;;;;;;;6.88;3.90;;;;;;;;;;4997046;28;20030;-68
2023/09/16 03:04:56;;;;;;;11.63;4.60;;;;;;;;;;4993481;28;20049;-68
2023/09/16 03:07:21;;;;;;;7.78;3.90;;;;;;;;;;4995897;28;20027;-68
2023/09/16 03:09:47;;;;;;;7.85;4.13;;;;;;;;;;4997918;28;20034;-68
2023/09/16 03:12:12;;;;;;;7.05;4.30;;;;;;;;;;4989476;28;20033;-69
2023/09/16 03:14:37;;;;;;;8.27;4.28;;;;;;;;;;4996990;28;20053;-68
2023/09/16 03:17:03;;;;;;;7.95;3.97;;;;;;;;;;5004611;28;20175;-68
2023/09/16 03:19:28;;;;;;;10.10;4.15;;;;;;;;;;4996926;28;20146;-68
2023/09/16 03:21:54;;;;;;;6.40;4.22;;;;;;;;;;4999527;28;20133;-68
2023/09/16 03:24:19;;;;;;;9.68;4.72;;;;;;;;;;4996284;28;20034;-68
2023/09/16 03:26:45;;;;;;;9.18;4.22;;;;;;;;;;4992683;28;20454;-68
2023/09/16 03:29:11;;;;;;;9.23;4.20;;;;;;;;;;4993923;28;20575;-68
2023/09/16 03:31:37;;;;;;;6.55;4.15;;;;;;;;;;5001623;28;20034;-69
2023/09/16 03:34:02;;;;;;;8.30;4.40;;;;;;;;;;4998943;28;20034;-68
2023/09/16 03:36:28;;;;;;;7.28;4.47;;;;;;;;;;4993418;28;20029;-68
2023/09/16 03:38:53;;;;;;;8.00;4.30;;;;;;;;;;4993569;28;20050;-68
2023/09/16 03:41:18;;;;;;;7.68;3.90;;;;;;;;;;4999253;28;20520;-68
2023/09/16 03:43:44;;;;;;;9.02;4.40;;;;;;;;;;5000390;28;20617;-68
2023/09/16 03:46:10;;;;;;;8.13;4.30;;;;;;;;;;4994808;28;20034;-68
2023/09/16 03:48:35;;;;;;;7.22;4.28;;;;;;;;;;5003851;28;20057;-68
2023/09/16 03:51:02;;;;;;;7.28;3.92;;;;;;;;;;5000429;28;20025;-68
2023/09/16 03:53:28;;;;;;;7.40;4.30;;;;;;;;;;4985406;28;20034;-68
2023/09/16 03:55:53;;;;;;;7.03;3.95;;;;;;;;;;4989651;28;20535;-68
2023/09/16 03:58:19;;;;;;;6.68;4.20;;;;;;;;;;4997344;28;20042;-68
2023/09/16 04:00:44;;;;;;;6.57;4.07;;;;;;;;;;4998702;28;20057;-68
2023/09/16 04:03:11;;;;;;;8.60;4.40;;;;;;;;;;4981142;28;20516;-68
2023/09/16 04:05:37;;;;;;;6.57;4.38;;;;;;;;;;4998687;28;20071;-68
2023/09/16 04:08:02;;;;;;;8.50;4.80;;;;;;;;;;4995678;28;20480;-68
2023/09/16 04:10:28;;;;;;;7.80;4.57;;;;;;;;;;4991775;28;20432;-68
2023/09/16 04:12:53;;;;;;;6.95;4.50;;;;;;;;;;4994466;28;20121;-68
2023/09/16 04:15:18;;;;;;;8.45;4.60;;;;;;;;;;4998026;28;20040;-68
2023/09/16 04:17:44;;;;;;;8.60;4.53;;;;;;;;;;4995656;28;20021;-68
2023/09/16 04:20:10;;;;;;;7.13;4.15;;;;;;;;;;4992023;28;20117;-68
2023/09/16 04:22:35;;;;;;;8.07;4.65;;;;;;;;;;4994998;28;20602;-68
2023/09/16 04:25:01;;;;;;;7.93;4.35;;;;;;;;;;4998727;28;20045;-68
2023/09/16 04:27:26;;;;;;;6.57;4.50;;;;;;;;;;4996030;28;20037;-68
2023/09/16 04:29:51;;;;;;;8.15;4.72;;;;;;;;;;4991704;28;20052;-68
2023/09/16 04:32:17;;;;;;;10.10;4.55;;;;;;;;;;4994528;28;20042;-68
2023/09/16 04:34:42;;;;;;;7.32;4.70;;;;;;;;;;4999816;28;20038;-68
2023/09/16 04:37:10;;;;;;;11.10;4.90;;;;;;;;;;4996737;28;20034;-68
2023/09/16 04:39:35;;;;;;;8.20;4.90;;;;;;;;;;4991412;28;20069;-68
2023/09/16 04:42:02;;;;;;;6.50;4.35;;;;;;;;;;4992257;28;20460;-68
2023/09/16 04:44:28;;;;;;;7.18;4.57;;;;;;;;;;5000596;28;20022;-68
2023/09/16 04:46:54;;;;;;;8.88;5.20;;;;;;;;;;4983957;28;20052;-68
2023/09/16 04:49:20;;;;;;;9.00;5.28;;;;;;;;;;4971259;28;20035;-68
2023/09/16 04:51:45;;;;;;;10.23;4.60;;;;;;;;;;4997175;28;20065;-68
2023/09/16 04:54:11;;;;;;;8.52;4.78;;;;;;;;;;4985927;28;20034;-68
2023/09/16 04:56:37;;;;;;;9.05;5.18;;;;;;;;;;4997045;28;20496;-68
2023/09/16 04:59:03;;;;;;;7.30;4.72;;;;;;;;;;4996944;28;20140;-68
2023/09/16 05:01:31;;;;;;;9.02;5.10;;;;;;;;;;4993384;28;20364;-69
2023/09/16 05:03:58;;;;;;;7.88;4.53;;;;;;;;;;4991286;28;20034;-68
2023/09/16 05:06:24;;;;;;;7.68;4.35;;;;;;;;;;4993153;28;20136;-68
2023/09/16 05:08:49;;;;;;;8.02;4.70;;;;;;;;;;5002681;28;20455;-68
2023/09/16 05:11:15;;;;;;;7.78;4.32;;;;;;;;;;5001889;28;20018;-68
2023/09/16 05:13:41;;;;;;;8.57;4.63;;;;;;;;;;4995023;28;20037;-68
2023/09/16 05:16:10;;;;;;;8.20;4.53;;;;;;;;;;4992910;28;20141;-68
2023/09/16 05:18:35;;;;;;;9.88;5.07;;;;;;;;;;4997826;28;20046;-68
2023/09/16 05:21:01;;;;;;;11.55;5.05;;;;;;;;;;4994858;28;20034;-68
2023/09/16 05:23:26;;;;;;;8.95;5.25;;;;;;;;;;4990561;28;20029;-68
2023/09/16 05:25:52;;;;;;;9.82;5.35;;;;;;;;;;4992512;28;20031;-68
2023/09/16 05:28:17;;;;;;;9.98;4.43;;;;;;;;;;4997796;28;20062;-68
2023/09/16 05:30:43;;;;;;;8.80;4.82;;;;;;;;;;4986262;28;20117;-68
2023/09/16 05:33:10;;;;;;;8.40;4.60;;;;;;;;;;4985833;28;20049;-68
2023/09/16 05:35:37;;;;;;;7.85;4.47;;;;;;;;;;4983604;28;20030;-68
2023/09/16 05:38:03;;;;;;;8.80;4.82;;;;;;;;;;4994529;28;20050;-68
2023/09/16 05:40:29;;;;;;;11.65;5.80;;;;;;;;;;4994023;28;20511;-68
2023/09/16 05:42:54;;;;;;;8.57;4.93;;;;;;;;;;5001373;28;20478;-68
2023/09/16 05:45:19;;;;;;;10.80;5.60;;;;;;;;;;4993003;28;20065;-68
2023/09/16 05:47:45;;;;;;;8.60;5.18;;;;;;;;;;5001232;28;20034;-68
2023/09/16 05:50:13;;;;;;;10.02;5.32;;;;;;;;;;4995954;28;20024;-68
2023/09/16 05:52:38;;;;;;;9.95;4.90;;;;;;;;;;4974677;28;20792;-68
2023/09/16 05:55:04;;;;;;;8.18;4.72;;;;;;;;;;4995967;28;20033;-68
2023/09/16 05:57:29;;;;;;;11.63;5.30;;;;;;;;;;4994281;28;20104;-68
2023/09/16 05:59:54;;;;;;;9.18;5.55;;;;;;;;;;4998567;28;20042;-68
2023/09/16 06:02:20;;;;;;;12.73;5.78;;;;;;;;;;5000823;28;20022;-68
2023/09/16 06:04:45;;;;;;;9.02;5.40;;;;;;;;;;4996227;28;20041;-68
2023/09/16 06:07:10;;;;;;;11.93;5.55;;;;;;;;;;4994228;28;20035;-68
2023/09/16 06:09:36;;;;;;;10.88;5.07;;;;;;;;;;4987977;28;20033;-68
2023/09/16 06:12:01;;;;;;;8.30;5.22;;;;;;;;;;4999738;28;20026;-68
2023/09/16 06:14:26;;;;;;;12.48;5.63;;;;;;;;;;4998543;28;20421;-68
2023/09/16 06:16:52;;;;;;;12.10;5.55;;;;;;;;;;5005111;28;20113;-68
2023/09/16 06:19:17;;;;;;;8.90;5.50;;;;;;;;;;4997485;28;20035;-68
2023/09/16 06:21:42;;;;;;;12.40;6.45;;;;;;;;;;5000614;28;20034;-68
2023/09/16 06:24:08;;;;;;;10.20;5.60;;;;;;;;;;4997275;28;20065;-68
2023/09/16 06:26:33;;;;;;;11.82;6.20;;;;;;;;;;4994102;28;20034;-68
2023/09/16 06:28:59;;;;;;;9.98;5.18;;;;;;;;;;4997001;28;20526;-68
2023/09/16 06:31:24;;;;;;;9.13;5.50;;;;;;;;;;5000140;28;20130;-68
2023/09/16 06:33:50;;;;;;;11.50;5.85;;;;;;;;;;4989572;28;20061;-68
2023/09/16 06:36:15;;;;;;;12.15;5.93;;;;;;;;;;4990167;28;20193;-68
2023/09/16 06:38:40;;;;;;;9.88;5.95;;;;;;;;;;4979089;28;20046;-68
2023/09/16 06:41:06;;;;;;;9.68;5.47;;;;;;;;;;4998813;28;20046;-68
2023/09/16 06:43:31;;;;;;;10.48;5.35;;;;;;;;;;5002073;28;20045;-68
2023/09/16 06:45:56;;;;;;;9.07;5.65;;;;;;;;;;4992174;28;20523;-69
2023/09/16 06:48:22;;;;;;;12.43;6.05;;;;;;;;;;5000200;28;20030;-68
2023/09/16 06:50:47;;;;;;;9.98;6.22;;;;;;;;;;4999671;28;20029;-69
2023/09/16 06:53:13;;;;;;;9.27;5.60;;;;;;;;;;4987850;28;20602;-69
2023/09/16 06:55:38;;;;;;;11.25;5.97;;;;;;;;;;5000005;28;20474;-69
2023/09/16 06:58:04;;;;;;;10.93;6.38;;;;;;;;;;4980192;28;20092;-69
2023/09/16 07:00:33;;;;;;;12.50;6.13;;;;;;;;;;4992912;28;20567;-69
2023/09/16 07:02:58;;;;;;;11.73;6.00;;;;;;;;;;4998825;28;20784;-69
2023/09/16 07:05:24;;;;;;;13.70;6.70;;;;;;;;;;4999035;28;20041;-69
2023/09/16 07:07:52;;;;;;;10.15;6.20;;;;;;;;;;4994693;28;20033;-69
2023/09/16 07:10:18;;;;;;;9.80;5.82;;;;;;;;;;4991853;28;20689;-69
2023/09/16 07:12:44;;;;;;;10.50;5.88;;;;;;;;;;4997308;28;20129;-68
2023/09/16 07:15:09;;;;;;;10.40;6.07;;;;;;;;;;4997833;28;20136;-69
2023/09/16 07:17:35;;;;;;;9.68;6.28;;;;;;;;;;4989435;28;20030;-69
2023/09/16 07:20:00;;;;;;;10.52;6.32;;;;;;;;;;4966795;28;20029;-69
2023/09/16 07:22:26;;;;;;;12.50;7.10;;;;;;;;;;4972731;28;20069;-69
2023/09/16 07:24:51;;;;;;;10.30;6.80;;;;;;;;;;4984947;28;20038;-69
2023/09/16 07:27:17;;;;;;;10.35;6.32;;;;;;;;;;4986973;28;20050;-69
2023/09/16 07:29:43;;;;;;;10.82;6.28;;;;;;;;;;4974785;28;20018;-69
2023/09/16 07:32:09;;;;;;;10.73;6.93;;;;;;;;;;4986847;28;20037;-69
2023/09/16 07:34:34;;;;;;;11.50;6.22;;;;;;;;;;4977416;28;20051;-68
2023/09/16 07:37:01;;;;;;;17.40;7.30;;;;;;;;;;4971592;28;20046;-69
2023/09/16 07:39:27;;;;;;;12.82;7.07;;;;;;;;;;4984464;28;20045;-69
2023/09/16 07:41:52;;;;;;;11.60;7.47;;;;;;;;;;4993794;28;20030;-69
2023/09/16 07:44:17;;;;;;;11.20;6.80;;;;;;;;;;4998679;28;20852;-69
2023/09/16 07:46:43;;;;;;;10.68;6.68;;;;;;;;;;4990890;28;20044;-69
2023/09/16 07:49:08;;;;;;;10.95;6.90;;;;;;;;;;5001955;28;20044;-69
2023/09/16 07:51:34;;;;;;;11.77;7.20;;;;;;;;;;4991264;28;20125;-69
2023/09/16 07:54:00;;;;;;;10.45;6.53;;;;;;;;;;4992618;28;20042;-69
2023/09/16 07:56:25;;;;;;;12.68;7.22;;;;;;;;;;4998162;28;20038;-69
2023/09/16 07:58:50;;;;;;;11.60;6.78;;;;;;;;;;5000106;28;20072;-69
2023/09/16 08:01:16;;;;;;;12.30;7.35;;;;;;;;;;4987723;28;20043;-68
2023/09/16 08:03:42;;;;;;;15.88;7.85;;;;;;;;;;4981811;28;20475;-68
2023/09/16 08:06:08;;;;;;;12.93;7.30;;;;;;;;;;4980211;28;20050;-67
2023/09/16 08:08:33;;;;;;;14.57;7.13;;;;;;;;;;4977306;28;20062;-67
2023/09/16 08:10:59;;;;;;;13.93;6.97;;;;;;;;;;4974453;28;20077;-68
2023/09/16 08:13:24;;;;;;;13.63;7.60;;;;;;;;;;4979286;28;20128;-69
2023/09/16 08:15:49;;;;;;;14.20;7.13;;;;;;;;;;4987337;28;20049;-68
2023/09/16 08:18:15;;;;;;;13.60;7.07;;;;;;;;;;4996754;28;20054;-70
2023/09/16 08:20:41;;;;;;;13.45;7.53;;;;;;;;;;4990373;28;20140;-68
2023/09/16 08:23:08;;;;;;;16.02;7.13;;;;;;;;;;4972263;28;20097;-68
2023/09/16 08:25:33;;;;;;;13.63;6.85;;;;;;;;;;4986124;28;20049;-68
2023/09/16 08:27:58;;;;;;;9.95;6.50;;;;;;;;;;4982309;28;20042;-68
2023/09/16 08:30:25;;;;;;;12.32;6.45;;;;;;;;;;4980608;28;20511;-68
2023/09/16 08:32:50;;;;;;;12.02;6.30;;;;;;;;;;4990474;28;20030;-68
2023/09/16 08:35:16;;;;;;;9.52;5.63;;;;;;;;;;4993216;28;20080;-68
2023/09/16 08:37:41;;;;;;;13.05;6.40;;;;;;;;;;4990687;28;20474;-68
2023/09/16 08:40:07;;;;;;;9.98;6.15;;;;;;;;;;4992514;28;20141;-68
2023/09/16 08:42:38;;;;;;;10.10;5.90;;;;;;;;;;4996461;28;20137;-68
2023/09/16 08:45:06;;;;;;;10.13;6.38;;;;;;;;;;4990004;28;20554;-68
2023/09/16 08:47:34;;;;;;;10.52;6.90;;;;;;;;;;4985545;28;20467;-68
2023/09/16 08:50:07;;;;;;;9.82;5.82;;;;;;;;;;4990473;28;20713;-68
2023/09/16 08:52:46;;;;;;;10.00;5.72;;;;;;;;;;4989536;28;20038;-67
2023/09/16 08:55:13;;;;;;;9.48;5.97;;;;;;;;;;4992843;28;20048;-68
2023/09/16 08:57:42;;;;;;;9.65;5.80;;;;;;;;;;4983759;28;20089;-67
2023/09/16 09:00:08;;;;;;;9.73;6.03;;;;;;;;;;4990444;28;20107;-68
2023/09/16 09:02:36;;;;;;;9.63;6.35;;;;;;;;;;4997381;28;20947;-68
2023/09/16 09:05:04;;;;;;;11.05;7.05;;;;;;;;;;5010157;28;20053;-68
2023/09/16 09:07:36;;;;;;;15.75;6.95;;;;;;;;;;4984755;28;20049;-68
2023/09/16 09:10:03;;;;;;;12.50;6.20;;;;;;;;;;4984661;28;20489;-68
2023/09/16 09:12:29;;;;;;;11.13;6.85;;;;;;;;;;4984325;28;20516;-68
2023/09/16 09:14:55;;;;;;;11.52;6.45;;;;;;;;;;4983808;28;20065;-68
2023/09/16 09:17:21;;;;;;;10.88;6.40;;;;;;;;;;4984062;28;20059;-68
2023/09/16 09:19:48;;;;;;;10.13;6.18;;;;;;;;;;4982773;28;20089;-68
2023/09/16 09:22:14;;;;;;;11.73;6.07;;;;;;;;;;4985203;28;20646;-68
2023/09/16 09:24:39;;;;;;;9.48;5.53;;;;;;;;;;4994083;28;20133;-67
2023/09/16 09:27:06;;;;;;;9.27;6.07;;;;;;;;;;4991553;28;20066;-68
2023/09/16 09:29:32;;;;;;;10.50;6.22;;;;;;;;;;4977407;28;20054;-68
2023/09/16 09:31:57;;;;;;;9.05;5.93;;;;;;;;;;4986524;28;20121;-68
2023/09/16 09:34:27;;;;;;;8.43;5.35;;;;;;;;;;4987277;28;20039;-68
2023/09/16 09:36:52;;;;;;;10.05;5.45;;;;;;;;;;4988519;28;20049;-68
2023/09/16 09:39:18;;;;;;;9.15;5.65;;;;;;;;;;4997336;28;20035;-68
2023/09/16 09:41:49;;;;;;;13.35;6.20;;;;;;;;;;4992288;28;20092;-68
2023/09/16 09:44:15;;;;;;;8.50;6.05;;;;;;;;;;4991224;28;20498;-68
2023/09/16 09:46:41;;;;;;;9.27;5.85;;;;;;;;;;4990450;28;20689;-68
2023/09/16 09:49:06;;;;;;;10.43;5.85;;;;;;;;;;4991896;28;20034;-68
2023/09/16 09:51:32;;;;;;;8.65;5.78;;;;;;;;;;4996867;28;20041;-68
2023/09/16 09:53:58;;;;;;;10.05;5.95;;;;;;;;;;4983907;28;20880;-68
2023/09/16 09:56:23;;;;;;;8.85;5.63;;;;;;;;;;4997370;28;20492;-68
2023/09/16 09:58:50;;;;;;;8.45;5.45;;;;;;;;;;4996015;28;20099;-68
2023/09/16 10:01:16;;;;;;;6.90;5.60;;;;;;;;;;4989123;28;20053;-68
2023/09/16 10:03:48;;;;;;;9.85;6.13;;;;;;;;;;4990826;28;20034;-68
2023/09/16 10:06:16;;;;;;;10.57;6.57;;;;;;;;;;4993953;28;20061;-68
2023/09/16 10:08:42;;;;;;;7.97;5.70;;;;;;;;;;4996628;28;20395;-68
2023/09/16 10:11:08;;;;;;;9.73;5.57;;;;;;;;;;4992557;28;20129;-68
2023/09/16 10:13:34;;;;;;;8.65;5.90;;;;;;;;;;4990190;28;20130;-68
2023/09/16 10:16:02;;;;;;;8.00;5.88;;;;;;;;;;4994285;28;20428;-68
2023/09/16 10:18:28;;;;;;;8.75;5.63;;;;;;;;;;4997532;28;20030;-68
2023/09/16 10:20:55;;;;;;;11.18;5.90;;;;;;;;;;4996854;28;20026;-68
2023/09/16 10:23:21;;;;;;;10.27;5.78;;;;;;;;;;4994507;28;20025;-68
2023/09/16 10:25:47;;;;;;;9.20;5.72;;;;;;;;;;4996549;28;20127;-68
2023/09/16 10:28:13;;;;;;;10.00;6.13;;;;;;;;;;5000261;28;20282;-68
2023/09/16 10:30:38;;;;;;;11.75;6.22;;;;;;;;;;4997893;28;20053;-68
2023/09/16 10:33:06;;;;;;;7.72;5.20;;;;;;;;;;4993839;28;20034;-68
2023/09/16 10:35:34;;;;;;;8.63;5.78;;;;;;;;;;5006628;28;20510;-68
2023/09/16 10:38:01;;;;;;;7.45;5.55;;;;;;;;;;4993444;28;20037;-68
2023/09/16 10:40:26;;;;;;;7.97;5.20;;;;;;;;;;4992364;28;20114;-68
2023/09/16 10:42:53;;;;;;;8.55;5.72;;;;;;;;;;5000110;28;20034;-68
2023/09/16 10:45:19;;;;;;;6.90;5.32;;;;;;;;;;4992442;28;20062;-68
2023/09/16 10:47:48;;;;;;;7.35;5.15;;;;;;;;;;4981524;28;20062;-69
2023/09/16 10:50:14;;;;;;;9.25;5.45;;;;;;;;;;4980342;28;20027;-68
2023/09/16 10:52:45;;;;;;;10.27;5.75;;;;;;;;;;4983934;28;20045;-68
2023/09/16 10:55:31;;;;;;;8.07;5.65;;;;;;;;;;4989016;28;20065;-68
2023/09/16 10:58:06;;;;;;;8.43;6.18;;;;;;;;;;4999612;28;20069;-68
2023/09/16 11:00:43;;;;;;;8.13;5.43;;;;;;;;;;4992101;28;20050;-68
2023/09/16 11:03:13;;;;;;;7.70;5.05;;;;;;;;;;4994430;28;21013;-68
2023/09/16 11:05:39;;;;;;;7.55;5.53;;;;;;;;;;4994540;28;20491;-68
2023/09/16 11:08:05;;;;;;;9.10;5.57;;;;;;;;;;4976763;28;20037;-68
2023/09/16 11:10:30;;;;;;;7.38;5.40;;;;;;;;;;4996864;28;20109;-68
2023/09/16 11:12:57;;;;;;;9.85;5.25;;;;;;;;;;4995080;28;20047;-68
2023/09/16 11:15:30;;;;;;;6.80;4.70;;;;;;;;;;4985831;28;20057;-69
2023/09/16 11:18:10;;;;;;;8.05;5.03;;;;;;;;;;4985337;28;20046;-68
2023/09/16 11:20:38;;;;;;;7.40;5.07;;;;;;;;;;4983619;28;20027;-68
2023/09/16 11:23:05;;;;;;;6.30;4.95;;;;;;;;;;4983391;28;20072;-68
2023/09/16 11:25:41;;;;;;;7.55;4.90;;;;;;;;;;4975163;28;20050;-69
2023/09/16 11:28:09;;;;;;;6.35;4.60;;;;;;;;;;4985482;28;20034;-68
2023/09/16 11:30:36;;;;;;;5.85;4.63;;;;;;;;;;4995541;28;20053;-67
2023/09/16 11:33:01;;;;;;;7.13;5.30;;;;;;;;;;4992383;28;20515;-68
2023/09/16 11:35:28;;;;;;;7.18;4.80;;;;;;;;;;5001298;28;20037;-68
2023/09/16 11:37:54;;;;;;;7.25;4.68;;;;;;;;;;4991416;28;20057;-68
2023/09/16 11:40:27;;;;;;;6.00;5.00;;;;;;;;;;4989256;28;20050;-68
2023/09/16 11:42:55;;;;;;;7.03;5.15;;;;;;;;;;4989088;28;20330;-68
2023/09/16 11:45:21;;;;;;;6.32;4.72;;;;;;;;;;4975915;28;20038;-68
2023/09/16 11:47:48;;;;;;;6.63;4.50;;;;;;;;;;4989513;28;20100;-68
2023/09/16 11:50:23;;;;;;;5.78;4.38;;;;;;;;;;4980485;28;20693;-68
2023/09/16 11:52:49;;;;;;;6.30;4.60;;;;;;;;;;4980496;28;20034;-68
2023/09/16 11:55:15;;;;;;;6.70;4.80;;;;;;;;;;4984516;28;20038;-68
2023/09/16 11:57:41;;;;;;;5.95;4.50;;;;;;;;;;4988219;28;20100;-68
2023/09/16 12:00:09;;;;;;;5.30;4.18;;;;;;;;;;4985155;28;20487;-68
2023/09/16 12:02:38;;;;;;;7.47;4.20;;;;;;;;;;4996431;28;20096;-68
2023/09/16 12:05:04;;;;;;;5.25;4.13;;;;;;;;;;4995235;28;20030;-68
2023/09/16 12:07:31;;;;;;;4.90;4.40;;;;;;;;;;4990695;28;20042;-68
2023/09/16 12:09:58;;;;;;;7.50;4.40;;;;;;;;;;4993447;28;20527;-68
2023/09/16 12:12:25;;;;;;;5.40;4.03;;;;;;;;;;4997896;28;20041;-68
2023/09/16 12:14:51;;;;;;;6.45;4.40;;;;;;;;;;4987429;28;20107;-68
2023/09/16 12:17:17;;;;;;;5.40;4.47;;;;;;;;;;5005421;28;20040;-68
2023/09/16 12:19:53;;;;;;;7.10;4.60;;;;;;;;;;4994847;28;20515;-67
2023/09/16 12:22:19;;;;;;;6.72;4.78;;;;;;;;;;4982658;28;20076;-68
2023/09/16 12:24:45;;;;;;;9.32;5.28;;;;;;;;;;4989736;28;20065;-68
2023/09/16 12:27:12;;;;;;;6.85;4.45;;;;;;;;;;4993697;28;20395;-68
2023/09/16 12:29:37;;;;;;;6.43;4.50;;;;;;;;;;4986724;28;20474;-68
2023/09/16 12:32:18;;;;;;;7.32;4.80;;;;;;;;;;4995771;28;20110;-68
2023/09/16 12:34:44;;;;;;;8.73;4.70;;;;;;;;;;4991198;28;20096;-67
2023/09/16 12:37:09;;;;;;;6.28;4.07;;;;;;;;;;4984854;28;20045;-68
2023/09/16 12:39:35;;;;;;;7.55;4.80;;;;;;;;;;4988080;28;20542;-68
2023/09/16 12:42:02;;;;;;;6.95;5.00;;;;;;;;;;4988737;28;20066;-68
2023/09/16 12:44:30;;;;;;;8.18;4.85;;;;;;;;;;4978021;28;20404;-68
2023/09/16 12:46:58;;;;;;;6.50;4.40;;;;;;;;;;4988568;28;21426;-68
2023/09/16 12:49:24;;;;;;;8.35;4.85;;;;;;;;;;4978516;28;20038;-66
2023/09/16 12:51:51;;;;;;;7.40;4.60;;;;;;;;;;4980072;28;20517;-68
2023/09/16 12:54:17;;;;;;;6.22;4.72;;;;;;;;;;4976825;28;20042;-69
2023/09/16 12:56:52;;;;;;;6.70;4.57;;;;;;;;;;4973908;28;20034;-69
2023/09/16 12:59:18;;;;;;;6.78;4.93;;;;;;;;;;4979039;28;20110;-69
2023/09/16 13:01:44;;;;;;;18.80;4.93;;;;;;;;;;4977085;28;20046;-69
2023/09/16 13:04:10;;;;;;;6.45;4.65;;;;;;;;;;4973909;28;20138;-68
2023/09/16 13:06:36;;;;;;;8.63;4.30;;;;;;;;;;4983677;28;20050;-68
2023/09/16 13:09:02;;;;;;;5.85;4.53;;;;;;;;;;4997780;28;20038;-69
2023/09/16 13:11:28;;;;;;;4.90;4.30;;;;;;;;;;4996048;28;20415;-69
2023/09/16 13:13:55;;;;;;;5.13;4.07;;;;;;;;;;4990888;28;20053;-68
2023/09/16 13:16:34;;;;;;;7.50;4.03;;;;;;;;;;4992289;28;20042;-69
2023/09/16 13:19:09;;;;;;;6.20;3.80;;;;;;;;;;4975585;28;20086;-69
2023/09/16 13:21:36;;;;;;;5.70;4.18;;;;;;;;;;4975656;28;20145;-69
2023/09/16 13:24:02;;;;;;;4.72;4.05;;;;;;;;;;4993059;28;20776;-69
2023/09/16 13:26:29;;;;;;;6.53;4.32;;;;;;;;;;4991747;28;20109;-69
2023/09/16 13:29:03;;;;;;;4.75;4.25;;;;;;;;;;4994063;28;20074;-69
2023/09/16 13:31:29;;;;;;;6.43;4.13;;;;;;;;;;4997281;28;20045;-69
2023/09/16 13:34:05;;;;;;;4.65;4.20;;;;;;;;;;4995596;28;20038;-69
2023/09/16 13:36:32;;;;;;;5.00;3.95;;;;;;;;;;4997008;28;20030;-69
2023/09/16 13:39:07;;;;;;;5.00;4.20;;;;;;;;;;4991105;28;20037;-69
2023/09/16 13:41:33;;;;;;;5.60;4.03;;;;;;;;;;4994327;28;20512;-69
2023/09/16 13:43:58;;;;;;;4.88;3.90;;;;;;;;;;4998500;28;20073;-69
2023/09/16 13:46:27;;;;;;;5.80;3.72;;;;;;;;;;4982816;28;20484;-69
2023/09/16 13:48:54;;;;;;;5.60;3.58;;;;;;;;;;4987251;28;20038;-69
2023/09/16 13:51:19;;;;;;;7.57;4.05;;;;;;;;;;4995334;28;20034;-69
2023/09/16 13:53:45;;;;;;;6.70;4.00;;;;;;;;;;4985021;28;20494;-69
2023/09/16 13:56:11;;;;;;;4.55;3.50;;;;;;;;;;5000748;28;20034;-69
2023/09/16 13:58:37;;;;;;;5.05;4.20;;;;;;;;;;4980547;28;20066;-69
2023/09/16 14:01:04;;;;;;;5.15;3.83;;;;;;;;;;4998043;28;20545;-69
2023/09/16 14:03:29;;;;;;;5.00;4.03;;;;;;;;;;4999064;28;20120;-69
2023/09/16 14:05:54;;;;;;;5.90;3.80;;;;;;;;;;4991329;28;25578;-69
2023/09/16 14:08:20;;;;;;;4.72;3.83;;;;;;;;;;4997804;28;20435;-69
2023/09/16 14:10:45;;;;;;;4.88;4.15;;;;;;;;;;4987997;28;20045;-70
2023/09/16 14:13:10;;;;;;;4.95;3.60;;;;;;;;;;4985666;28;20125;-70
2023/09/16 14:15:38;;;;;;;5.15;3.83;;;;;;;;;;4985620;28;20053;-69
2023/09/16 14:18:04;;;;;;;4.78;3.47;;;;;;;;;;4987075;28;20424;-69
2023/09/16 14:20:30;;;;;;;6.22;3.88;;;;;;;;;;4981522;28;20049;-70
2023/09/16 14:23:04;;;;;;;3.85;3.05;;;;;;;;;;4983784;28;20046;-69
2023/09/16 14:25:31;;;;;;;4.65;3.03;;;;;;;;;;4991838;28;20061;-69
2023/09/16 14:27:56;;;;;;;3.85;2.50;;;;;;;;;;4991065;28;20512;-69
2023/09/16 14:30:22;;;;;;;3.15;2.13;;;;;;;;;;4984783;28;20041;-69
2023/09/16 14:32:48;;;;;;;3.70;2.17;;;;;;;;;;4996705;28;20030;-69
2023/09/16 14:35:16;;;;;;;4.55;2.00;;;;;;;;;;4996984;28;20109;-69
2023/09/16 14:37:44;;;;;;;3.60;2.05;;;;;;;;;;4998159;28;20046;-69